Time;durP1;ratioP1;P1;durP2;ratioP2;P2;SDS_P1;SDS_P2;PMS_P1;PMS_P2;Temp;Humidity;BMP_temperature;BMP_pressure;BME280_temperature;BME280_humidity;BME280_pressure;Samples;Min_cycle;Max_cycle;Signal;HPM_P1;HPM_P2
2022/08/24 00:00:11;;;;;;;0.80;0.77;;;16.00;96.90;;;;;;5093748;28;20422;-69
2022/08/24 00:02:37;;;;;;;2.20;2.10;;;16.10;96.60;;;;;;5093358;28;20598;-69
2022/08/24 00:05:04;;;;;;;1.87;0.90;;;16.10;96.80;;;;;;5093733;28;20442;-69
2022/08/24 00:07:30;;;;;;;0.70;0.67;;;16.10;96.50;;;;;;5075252;28;20664;-69
2022/08/24 00:09:56;;;;;;;0.70;0.70;;;16.10;96.00;;;;;;5093705;28;20761;-69
2022/08/24 00:12:23;;;;;;;1.00;1.00;;;16.10;96.10;;;;;;5093376;28;20403;-70
2022/08/24 00:14:48;;;;;;;0.67;0.67;;;16.10;96.30;;;;;;5075491;28;20407;-69
2022/08/24 00:17:14;;;;;;;0.93;0.90;;;16.10;96.50;;;;;;5093283;28;20452;-69
2022/08/24 00:19:40;;;;;;;0.97;0.77;;;16.10;96.90;;;;;;5093545;28;20203;-70
2022/08/24 00:22:06;;;;;;;0.50;0.50;;;16.10;97.10;;;;;;5093236;28;20412;-69
2022/08/24 00:24:32;;;;;;;0.60;0.60;;;15.90;97.00;;;;;;5093451;28;20412;-68
2022/08/24 00:26:58;;;;;;;0.60;0.60;;;15.90;96.90;;;;;;5093170;28;20208;-69
2022/08/24 00:29:24;;;;;;;0.83;0.83;;;15.70;97.10;;;;;;5093207;28;20498;-69
2022/08/24 00:31:50;;;;;;;0.90;0.80;;;15.70;97.50;;;;;;5093095;28;20407;-69
2022/08/24 00:34:16;;;;;;;1.53;1.43;;;15.70;97.80;;;;;;5093265;28;20230;-69
2022/08/24 00:36:43;;;;;;;0.40;0.40;;;15.70;97.90;;;;;;5093139;28;20214;-68
2022/08/24 00:39:09;;;;;;;1.17;0.80;;;15.70;97.70;;;;;;5093300;28;20481;-69
2022/08/24 00:41:40;;;;;;;2.10;1.27;;;15.80;97.90;;;;;;5092982;28;20468;-69
2022/08/24 00:44:06;;;;;;;0.80;0.80;;;15.80;97.90;;;;;;5093348;28;20404;-68
2022/08/24 00:46:41;;;;;;;0.70;0.70;;;15.80;98.10;;;;;;5092946;28;20429;-69
2022/08/24 00:49:18;;;;;;;1.07;1.07;;;15.70;97.80;;;;;;5093146;28;20453;-69
2022/08/24 00:51:54;;;;;;;1.07;1.07;;;15.70;97.90;;;;;;5092951;28;20828;-68
2022/08/24 00:54:21;;;;;;;0.60;0.60;;;15.80;97.80;;;;;;5095915;28;20754;-69
2022/08/24 00:56:53;;;;;;;0.70;0.70;;;15.80;98.30;;;;;;5096754;28;20433;-69
2022/08/24 00:59:44;;;;;;;1.00;1.00;;;15.80;98.10;;;;;;5097072;28;20399;-69
2022/08/24 01:02:16;;;;;;;1.00;0.80;;;15.80;97.70;;;;;;5083177;28;20424;-69
2022/08/24 01:04:57;;;;;;;0.60;0.60;;;15.80;97.90;;;;;;5096865;28;20415;-69
2022/08/24 01:07:25;;;;;;;0.50;0.50;;;15.80;98.10;;;;;;5096821;28;20454;-70
2022/08/24 01:09:54;;;;;;;1.03;0.67;;;15.80;98.40;;;;;;5096682;28;20404;-68
2022/08/24 01:12:21;;;;;;;0.70;0.60;;;15.80;98.60;;;;;;5096573;28;20833;-69
2022/08/24 01:14:47;;;;;;;0.83;0.83;;;15.80;98.40;;;;;;5096700;28;20430;-69
2022/08/24 01:19:59;;;;;;;0.60;0.60;;;15.80;98.50;;;;;;5096597;28;20921;-69
2022/08/24 01:22:52;;;;;;;0.77;0.77;;;15.80;98.40;;;;;;5096370;28;20402;-69
2022/08/24 01:25:20;;;;;;;1.20;1.13;;;15.70;98.60;;;;;;5096574;28;20403;-69
2022/08/24 01:27:47;;;;;;;1.47;1.30;;;15.60;98.30;;;;;;5096129;28;20545;-69
2022/08/24 01:30:15;;;;;;;0.83;0.83;;;15.60;98.10;;;;;;5096298;28;20398;-69
2022/08/24 01:32:50;;;;;;;0.83;0.83;;;15.60;98.40;;;;;;5096183;28;20415;-69
2022/08/24 01:35:16;;;;;;;1.10;1.10;;;15.50;98.30;;;;;;5096412;28;20756;-69
2022/08/24 01:37:42;;;;;;;0.93;0.93;;;15.60;98.50;;;;;;5096091;28;20429;-69
2022/08/24 01:40:08;;;;;;;1.80;0.73;;;15.50;98.70;;;;;;5096268;28;20254;-69
2022/08/24 01:42:34;;;;;;;0.67;0.67;;;15.50;98.90;;;;;;5095897;28;20403;-70
2022/08/24 01:45:02;;;;;;;0.93;0.93;;;15.50;99.10;;;;;;5096212;28;20451;-69
2022/08/24 01:47:28;;;;;;;0.80;0.60;;;15.50;98.90;;;;;;5095592;28;20473;-69
2022/08/24 01:49:53;;;;;;;0.53;0.53;;;15.50;99.20;;;;;;5077994;28;20912;-69
2022/08/24 01:52:23;;;;;;;1.27;1.17;;;15.40;98.60;;;;;;5095985;28;20172;-70
2022/08/24 01:54:49;;;;;;;0.80;0.80;;;15.40;99.00;;;;;;5096028;28;20246;-69
2022/08/24 01:57:15;;;;;;;2.17;1.50;;;15.40;99.40;;;;;;5095708;28;20792;-68
2022/08/24 01:59:41;;;;;;;1.03;1.03;;;15.30;99.60;;;;;;5095947;28;20194;-70
2022/08/24 02:02:20;;;;;;;1.13;1.03;;;15.30;99.80;;;;;;5095598;28;20490;-68
2022/08/24 02:04:45;;;;;;;0.60;0.60;;;15.30;99.80;;;;;;5076437;28;20906;-69
2022/08/24 02:07:12;;;;;;;0.60;0.60;;;15.30;99.80;;;;;;5095609;28;20476;-70
2022/08/24 02:09:38;;;;;;;0.73;0.73;;;15.30;99.70;;;;;;5095521;28;20169;-69
2022/08/24 02:12:05;;;;;;;1.23;1.07;;;15.30;99.70;;;;;;5095311;28;20402;-69
2022/08/24 02:14:31;;;;;;;0.97;0.97;;;15.30;99.70;;;;;;5095801;28;20187;-70
2022/08/24 02:16:57;;;;;;;0.87;0.70;;;15.20;99.80;;;;;;5095427;28;20438;-69
2022/08/24 02:19:24;;;;;;;1.10;1.00;;;15.20;99.80;;;;;;5095322;28;20176;-70
2022/08/24 02:21:50;;;;;;;1.50;1.40;;;15.20;99.80;;;;;;5095069;28;20453;-69
2022/08/24 02:24:15;;;;;;;0.83;0.83;;;15.20;99.70;;;;;;5095280;28;20490;-69
2022/08/24 02:26:41;;;;;;;1.33;1.23;;;15.10;99.80;;;;;;5095309;28;20666;-70
2022/08/24 02:29:07;;;;;;;2.20;1.00;;;15.10;99.20;;;;;;5095167;28;20188;-69
2022/08/24 02:31:33;;;;;;;0.60;0.60;;;15.10;99.30;;;;;;5076788;28;20636;-69
2022/08/24 02:33:59;;;;;;;1.07;1.07;;;15.10;99.60;;;;;;5095216;28;20177;-69
2022/08/24 02:36:25;;;;;;;1.17;1.07;;;15.10;99.50;;;;;;5095076;28;20434;-68
2022/08/24 02:38:50;;;;;;;0.70;0.70;;;15.10;99.70;;;;;;5095341;28;20169;-69
2022/08/24 02:41:16;;;;;;;0.80;0.80;;;15.10;99.90;;;;;;5094677;28;20917;-69
2022/08/24 02:43:42;;;;;;;0.93;0.87;;;15.10;99.90;;;;;;5094992;28;20172;-69
2022/08/24 02:46:14;;;;;;;0.70;0.67;;;15.20;99.90;;;;;;5094845;28;20204;-68
2022/08/24 02:48:40;;;;;;;0.90;0.90;;;15.20;99.70;;;;;;5094516;28;20242;-69
2022/08/24 02:51:06;;;;;;;0.70;0.70;;;15.10;99.40;;;;;;5076273;28;20429;-69
2022/08/24 02:53:31;;;;;;;0.60;0.60;;;15.10;99.40;;;;;;5094879;28;20169;-70
2022/08/24 02:55:57;;;;;;;0.67;0.67;;;15.20;99.40;;;;;;5094928;28;20192;-69
2022/08/24 02:58:23;;;;;;;1.37;1.30;;;15.20;99.50;;;;;;5094806;28;20177;-69
2022/08/24 03:00:48;;;;;;;0.67;0.67;;;15.30;98.90;;;;;;5094279;28;20173;-68
2022/08/24 03:03:14;;;;;;;2.20;2.07;;;15.30;99.00;;;;;;5094593;28;20251;-69
2022/08/24 03:05:40;;;;;;;0.70;0.70;;;15.30;97.70;;;;;;5076302;28;20743;-69
2022/08/24 03:08:05;;;;;;;0.80;0.80;;;15.40;97.60;;;;;;5094491;28;20195;-69
2022/08/24 03:10:31;;;;;;;1.03;1.03;;;15.50;98.00;;;;;;5094372;28;20176;-69
2022/08/24 03:13:00;;;;;;;0.50;0.50;;;15.50;98.40;;;;;;5094366;28;20169;-69
2022/08/24 03:15:26;;;;;;;0.60;0.60;;;15.50;98.70;;;;;;5075806;28;20407;-69
2022/08/24 03:17:52;;;;;;;0.97;0.97;;;15.60;98.40;;;;;;5093962;28;20502;-69
2022/08/24 03:20:20;;;;;;;0.50;0.50;;;15.60;98.40;;;;;;5094366;28;20438;-69
2022/08/24 03:22:46;;;;;;;2.43;2.33;;;15.50;98.60;;;;;;5094167;28;20254;-69
2022/08/24 03:25:13;;;;;;;0.80;0.80;;;15.40;98.60;;;;;;5094176;28;20403;-69
2022/08/24 03:27:39;;;;;;;0.60;0.60;;;15.30;98.90;;;;;;5093889;28;20973;-69
2022/08/24 03:30:09;;;;;;;0.73;0.73;;;15.30;99.00;;;;;;5094155;28;20411;-70
2022/08/24 03:32:35;;;;;;;0.97;0.80;;;15.20;99.00;;;;;;5093565;28;20407;-69
2022/08/24 03:35:01;;;;;;;0.83;0.83;;;15.10;99.00;;;;;;5093867;28;20399;-69
2022/08/24 03:37:26;;;;;;;0.57;0.57;;;15.10;99.00;;;;;;5093843;28;20245;-68
2022/08/24 03:39:52;;;;;;;0.70;0.70;;;15.10;99.50;;;;;;5075810;28;20958;-68
2022/08/24 03:42:18;;;;;;;0.40;0.40;;;15.10;99.10;;;;;;5093773;28;20173;-68
2022/08/24 03:44:43;;;;;;;0.63;0.63;;;15.10;98.90;;;;;;5093990;28;20183;-69
2022/08/24 03:47:09;;;;;;;1.17;1.00;;;15.10;98.70;;;;;;5093822;28;20322;-70
2022/08/24 03:49:36;;;;;;;1.13;1.13;;;15.20;98.20;;;;;;5093660;28;20181;-68
2022/08/24 03:52:02;;;;;;;0.90;0.90;;;15.20;98.10;;;;;;5093622;28;20166;-69
2022/08/24 03:54:28;;;;;;;1.70;1.23;;;15.40;98.00;;;;;;5093810;28;20452;-69
2022/08/24 03:56:53;;;;;;;0.63;0.60;;;15.50;98.30;;;;;;5093707;28;20419;-69
2022/08/24 03:59:19;;;;;;;1.10;1.00;;;15.50;97.80;;;;;;5093736;28;20533;-69
2022/08/24 04:01:45;;;;;;;0.93;0.93;;;15.60;97.90;;;;;;5093406;28;20615;-69
2022/08/24 04:04:10;;;;;;;0.77;0.77;;;15.50;97.50;;;;;;5093623;28;20169;-69
2022/08/24 04:06:37;;;;;;;0.80;0.80;;;15.50;97.30;;;;;;5093499;28;20192;-69
2022/08/24 04:09:04;;;;;;;1.33;1.23;;;15.50;97.90;;;;;;5093648;28;20261;-69
2022/08/24 04:11:30;;;;;;;0.50;0.50;;;15.50;98.10;;;;;;5093381;28;20769;-68
2022/08/24 04:13:57;;;;;;;3.03;1.00;;;15.30;98.30;;;;;;5093649;28;20397;-69
2022/08/24 04:16:23;;;;;;;1.27;1.20;;;15.30;98.60;;;;;;5093508;28;20422;-69
2022/08/24 04:18:49;;;;;;;0.70;0.70;;;15.30;98.70;;;;;;5093837;28;20881;-69
2022/08/24 04:21:27;;;;;;;1.00;1.00;;;15.20;98.60;;;;;;5093326;28;20414;-68
2022/08/24 04:23:54;;;;;;;0.80;0.80;;;15.20;99.00;;;;;;5093648;28;20394;-69
2022/08/24 04:26:22;;;;;;;0.93;0.90;;;15.20;99.20;;;;;;5093559;28;20437;-68
2022/08/24 04:28:48;;;;;;;0.80;0.80;;;15.20;99.10;;;;;;5095212;28;20457;-69
2022/08/24 04:31:14;;;;;;;1.73;1.63;;;15.10;99.10;;;;;;5097489;28;20403;-69
2022/08/24 04:33:40;;;;;;;1.07;0.97;;;15.10;99.20;;;;;;5097557;28;20400;-69
2022/08/24 04:36:07;;;;;;;1.60;1.50;;;15.10;99.20;;;;;;5097532;28;20479;-69
2022/08/24 04:38:34;;;;;;;1.60;1.50;;;15.10;99.20;;;;;;5097432;28;20987;-69
2022/08/24 04:41:04;;;;;;;0.63;0.63;;;15.00;99.20;;;;;;5097263;28;20446;-70
2022/08/24 04:43:29;;;;;;;1.87;1.77;;;15.10;99.10;;;;;;5097414;28;20486;-69
2022/08/24 04:45:55;;;;;;;0.97;0.97;;;15.10;98.70;;;;;;5097116;28;20845;-69
2022/08/24 04:48:21;;;;;;;1.63;0.83;;;15.10;98.60;;;;;;5096999;28;20237;-68
2022/08/24 04:50:48;;;;;;;0.63;0.63;;;15.10;98.50;;;;;;5097008;28;20629;-70
2022/08/24 04:53:15;;;;;;;0.90;0.90;;;15.10;98.70;;;;;;5097258;28;20398;-70
2022/08/24 04:55:46;;;;;;;0.67;0.67;;;15.20;98.70;;;;;;5097113;28;20461;-70
2022/08/24 04:58:14;;;;;;;2.50;2.40;;;15.30;98.80;;;;;;5097273;28;20413;-69
2022/08/24 05:00:40;;;;;;;1.33;0.90;;;15.30;98.60;;;;;;5096763;28;20406;-69
2022/08/24 05:03:06;;;;;;;2.27;1.70;;;15.20;98.50;;;;;;5097131;28;20396;-69
2022/08/24 05:05:32;;;;;;;1.60;1.60;;;15.10;98.70;;;;;;5097148;28;20412;-69
2022/08/24 05:07:58;;;;;;;1.00;0.90;;;15.10;98.90;;;;;;5096768;28;20452;-69
2022/08/24 05:10:24;;;;;;;0.53;0.53;;;15.10;98.70;;;;;;5078568;28;20887;-69
2022/08/24 05:12:50;;;;;;;1.07;1.07;;;15.20;98.40;;;;;;5096748;28;20410;-69
2022/08/24 05:15:15;;;;;;;0.90;0.90;;;15.20;98.10;;;;;;5096684;28;20417;-69
2022/08/24 05:17:42;;;;;;;0.70;0.70;;;15.30;98.10;;;;;;5096536;28;20192;-69
2022/08/24 05:20:10;;;;;;;1.43;1.27;;;15.30;98.20;;;;;;5096917;28;20652;-69
2022/08/24 05:22:36;;;;;;;0.50;0.40;;;15.30;98.30;;;;;;5096549;28;20400;-70
2022/08/24 05:25:04;;;;;;;0.63;0.63;;;15.40;98.30;;;;;;5096673;28;20416;-69
2022/08/24 05:27:31;;;;;;;0.80;0.80;;;15.40;97.60;;;;;;5095707;28;20848;-69
2022/08/24 05:29:57;;;;;;;0.50;0.50;;;15.40;97.50;;;;;;5096496;28;20398;-70
2022/08/24 05:32:22;;;;;;;0.73;0.70;;;15.40;97.80;;;;;;5096324;28;20403;-70
2022/08/24 05:34:48;;;;;;;1.03;1.03;;;15.60;97.30;;;;;;5096656;28;20219;-68
2022/08/24 05:37:14;;;;;;;1.60;1.50;;;15.70;97.60;;;;;;5096178;28;20280;-69
2022/08/24 05:39:40;;;;;;;0.73;0.73;;;15.90;97.50;;;;;;5095894;28;20529;-69
2022/08/24 05:42:06;;;;;;;0.50;0.50;;;16.20;97.70;;;;;;5096036;28;20409;-69
2022/08/24 05:44:32;;;;;;;0.50;0.50;;;16.50;97.70;;;;;;5096207;28;20217;-69
2022/08/24 05:46:59;;;;;;;1.13;0.97;;;16.80;97.50;;;;;;5095976;28;20429;-69
2022/08/24 05:49:26;;;;;;;0.70;0.70;;;17.10;97.20;;;;;;5095977;28;20175;-69
2022/08/24 05:51:52;;;;;;;0.80;0.80;;;17.30;96.80;;;;;;5095773;28;20414;-69
2022/08/24 05:54:18;;;;;;;1.10;1.00;;;17.50;95.70;;;;;;5096113;28;20448;-69
2022/08/24 05:56:44;;;;;;;0.50;0.50;;;17.70;96.20;;;;;;5095832;28;20466;-69
2022/08/24 05:59:10;;;;;;;1.47;1.23;;;18.00;96.10;;;;;;5095944;28;20399;-69
2022/08/24 06:01:37;;;;;;;0.50;0.50;;;18.20;95.70;;;;;;5095771;28;20487;-69
2022/08/24 06:04:07;;;;;;;0.57;0.57;;;18.40;95.50;;;;;;5095906;28;20395;-69
2022/08/24 06:06:32;;;;;;;0.53;0.53;;;18.60;94.80;;;;;;5095660;28;20447;-70
2022/08/24 06:09:00;;;;;;;0.50;0.50;;;18.80;93.70;;;;;;5095617;28;20484;-69
2022/08/24 06:11:30;;;;;;;0.60;0.60;;;19.00;93.70;;;;;;5093220;28;20165;-69
2022/08/24 06:14:00;;;;;;;0.60;0.60;;;19.20;93.00;;;;;;5093599;28;20964;-69
2022/08/24 06:16:26;;;;;;;0.60;0.60;;;19.40;93.50;;;;;;5094708;28;20940;-69
2022/08/24 06:18:52;;;;;;;0.87;0.80;;;19.70;92.60;;;;;;5094512;28;20436;-70
2022/08/24 06:21:21;;;;;;;1.27;1.17;;;19.90;92.60;;;;;;5093629;28;20543;-69
2022/08/24 06:23:48;;;;;;;4.00;0.67;;;20.00;92.00;;;;;;5094785;28;20426;-69
2022/08/24 06:29:01;;;;;;;0.50;0.50;;;20.00;91.70;;;;;;5095494;28;21009;-70
2022/08/24 06:31:27;;;;;;;0.60;0.60;;;20.10;92.30;;;;;;5094625;28;20428;-69
2022/08/24 06:33:54;;;;;;;1.07;0.97;;;20.10;91.40;;;;;;5095288;28;20772;-69
2022/08/24 06:36:20;;;;;;;0.40;0.40;;;20.10;91.30;;;;;;5095058;28;20189;-70
2022/08/24 06:38:46;;;;;;;0.50;0.50;;;20.30;91.00;;;;;;5095154;28;20822;-70
2022/08/24 06:41:12;;;;;;;0.50;0.50;;;20.40;91.50;;;;;;5094891;28;20434;-69
2022/08/24 06:43:37;;;;;;;0.43;0.43;;;20.80;90.40;;;;;;5095190;28;20182;-70
2022/08/24 06:46:04;;;;;;;1.43;0.80;;;21.20;90.30;;;;;;5095072;28;20197;-69
2022/08/24 06:48:30;;;;;;;0.60;0.60;;;21.60;90.10;;;;;;5094676;28;20205;-70
2022/08/24 06:50:57;;;;;;;0.60;0.60;;;21.90;80.70;;;;;;5094115;28;20403;-70
2022/08/24 06:53:23;;;;;;;0.70;0.70;;;22.00;85.70;;;;;;5094905;28;21011;-70
2022/08/24 06:55:54;;;;;;;0.90;0.70;;;22.10;85.20;;;;;;5094853;28;20516;-70
2022/08/24 06:58:21;;;;;;;0.60;0.60;;;22.20;84.50;;;;;;5094691;28;20908;-70
2022/08/24 07:00:47;;;;;;;0.50;0.50;;;22.30;81.10;;;;;;5095026;28;20762;-69
2022/08/24 07:03:14;;;;;;;0.80;0.80;;;22.40;75.80;;;;;;5094651;28;20449;-70
2022/08/24 07:05:39;;;;;;;0.77;0.77;;;22.40;72.50;;;;;;5094901;28;20416;-69
2022/08/24 07:08:06;;;;;;;0.60;0.60;;;22.50;72.30;;;;;;5094635;28;20540;-69
2022/08/24 07:10:33;;;;;;;0.40;0.40;;;22.80;73.40;;;;;;5094654;28;20261;-70
2022/08/24 07:12:59;;;;;;;0.67;0.60;;;23.20;74.70;;;;;;5076405;28;20415;-70
2022/08/24 07:15:25;;;;;;;0.60;0.60;;;23.60;65.60;;;;;;5094335;28;20502;-70
2022/08/24 07:17:52;;;;;;;0.70;0.70;;;24.00;65.50;;;;;;5094609;28;20169;-70
2022/08/24 07:20:18;;;;;;;0.43;0.43;;;24.40;65.40;;;;;;5094337;28;20426;-71
2022/08/24 07:22:44;;;;;;;0.57;0.57;;;24.60;63.20;;;;;;5094250;28;20442;-70
2022/08/24 07:25:11;;;;;;;0.60;0.60;;;24.90;62.60;;;;;;5094356;28;20377;-70
2022/08/24 07:27:38;;;;;;;0.60;0.47;;;25.00;60.20;;;;;;5094086;28;20660;-70
2022/08/24 07:30:05;;;;;;;0.83;0.77;;;25.20;60.60;;;;;;5094270;28;20380;-70
2022/08/24 07:32:32;;;;;;;0.60;0.50;;;26.00;57.30;;;;;;5093934;28;20422;-70
2022/08/24 07:34:59;;;;;;;0.50;0.50;;;26.70;55.10;;;;;;5094112;28;20437;-70
2022/08/24 07:37:25;;;;;;;0.60;0.60;;;27.70;54.80;;;;;;5094122;28;20479;-71
2022/08/24 07:39:51;;;;;;;0.70;0.60;;;28.40;52.90;;;;;;5094239;28;20399;-70
2022/08/24 07:42:17;;;;;;;0.60;0.60;;;28.70;50.30;;;;;;5093720;28;20432;-70
2022/08/24 07:44:43;;;;;;;0.50;0.50;;;28.30;48.60;;;;;;5094076;28;20403;-70
2022/08/24 07:47:09;;;;;;;0.60;0.60;;;27.70;51.50;;;;;;5093876;28;20683;-70
2022/08/24 07:49:34;;;;;;;0.40;0.40;;;27.20;50.30;;;;;;5093851;28;20181;-70
2022/08/24 07:52:00;;;;;;;0.80;0.80;;;26.90;50.90;;;;;;5093862;28;20171;-70
2022/08/24 07:54:27;;;;;;;0.53;0.53;;;26.70;51.10;;;;;;5094045;28;20243;-71
2022/08/24 07:56:53;;;;;;;0.50;0.50;;;26.60;50.60;;;;;;5093859;28;20234;-70
2022/08/24 07:59:19;;;;;;;0.80;0.70;;;26.40;52.20;;;;;;5093686;28;20403;-70
2022/08/24 08:01:44;;;;;;;0.47;0.47;;;26.50;53.70;;;;;;5093616;28;20245;-70
2022/08/24 08:04:11;;;;;;;0.77;0.57;;;26.80;54.20;;;;;;5093751;28;20199;-70
2022/08/24 08:06:36;;;;;;;0.60;0.50;;;26.90;50.40;;;;;;5093555;28;20180;-71
2022/08/24 08:09:04;;;;;;;1.23;1.23;;;26.70;50.50;;;;;;5093515;28;20470;-70
2022/08/24 08:11:29;;;;;;;0.83;0.83;;;26.10;50.00;;;;;;5093453;28;20636;-70
2022/08/24 08:13:55;;;;;;;2.87;0.63;;;26.00;52.50;;;;;;5093723;28;20512;-70
2022/08/24 08:16:22;;;;;;;0.50;0.50;;;26.40;52.40;;;;;;5075645;28;20551;-71
2022/08/24 08:18:47;;;;;;;0.40;0.40;;;26.90;50.80;;;;;;5093611;28;20173;-70
2022/08/24 08:24:16;;;;;;;0.40;0.40;;;27.60;49.90;;;;;;5093755;28;20176;-70
2022/08/24 08:26:49;;;;;;;0.60;0.60;;;27.90;49.60;;;;;;5093574;28;20414;-71
2022/08/24 08:29:17;;;;;;;1.00;0.73;;;28.20;47.10;;;;;;5093512;28;20407;-70
2022/08/24 08:31:43;;;;;;;0.70;0.70;;;28.60;46.20;;;;;;5093317;28;20751;-70
2022/08/24 08:34:09;;;;;;;0.47;0.47;;;29.00;45.80;;;;;;5093502;28;20478;-70
2022/08/24 08:36:39;;;;;;;0.50;0.50;;;29.20;42.90;;;;;;5093520;28;20450;-70
2022/08/24 08:39:08;;;;;;;0.50;0.50;;;29.60;43.50;;;;;;5093341;28;20395;-70
2022/08/24 08:41:51;;;;;;;0.40;0.40;;;30.90;42.10;;;;;;5093168;28;20398;-70
2022/08/24 08:44:36;;;;;;;0.50;0.50;;;31.90;40.60;;;;;;5093378;28;20406;-71
2022/08/24 08:47:25;;;;;;;0.80;0.80;;;33.10;37.00;;;;;;5093156;28;20410;-71
2022/08/24 08:50:24;;;;;;;0.67;0.67;;;33.60;34.60;;;;;;5041925;28;20427;-71
2022/08/24 08:53:27;;;;;;;0.60;0.60;;;34.00;34.30;;;;;;5087310;28;20419;-71
2022/08/24 08:56:12;;;;;;;0.50;0.50;;;32.30;36.40;;;;;;5093293;28;20526;-70
2022/08/24 08:59:12;;;;;;;0.73;0.40;;;31.20;36.00;;;;;;5093155;28;20383;-71
2022/08/24 09:01:44;;;;;;;0.60;0.57;;;31.40;37.50;;;;;;5093009;28;20548;-71
2022/08/24 09:04:37;;;;;;;1.33;0.50;;;32.40;35.40;;;;;;5093132;28;20734;-70
2022/08/24 09:07:44;;;;;;;1.00;0.63;;;32.70;34.70;;;;;;5055197;28;20838;-71
2022/08/24 09:10:35;;;;;;;0.40;0.40;;;33.50;36.00;;;;;;5093210;28;20482;-71
2022/08/24 09:13:27;;;;;;;0.47;0.47;;;34.10;34.20;;;;;;5093064;28;20387;-71
2022/08/24 09:16:06;;;;;;;0.70;0.50;;;34.00;32.70;;;;;;5091521;28;20799;-71
2022/08/24 09:18:57;;;;;;;1.50;0.60;;;34.30;31.90;;;;;;5096906;28;20402;-70
2022/08/24 09:21:22;;;;;;;0.70;0.70;;;33.50;33.00;;;;;;5096564;28;20394;-71
2022/08/24 09:24:03;;;;;;;1.30;0.80;;;33.90;34.20;;;;;;5096681;28;20395;-70
2022/08/24 09:27:07;;;;;;;1.47;0.67;;;34.30;32.90;;;;;;5096561;28;20188;-70
2022/08/24 09:29:48;;;;;;;0.87;0.50;;;34.40;32.80;;;;;;5082983;28;20433;-71
2022/08/24 09:32:45;;;;;;;1.23;0.70;;;34.60;31.50;;;;;;5096444;28;20424;-71
2022/08/24 09:35:17;;;;;;;0.60;0.60;;;34.70;30.40;;;;;;5096778;28;20391;-71
2022/08/24 09:38:21;;;;;;;2.47;0.60;;;34.80;32.10;;;;;;5096257;28;20415;-71
2022/08/24 09:41:22;;;;;;;0.60;0.60;;;34.60;30.80;;;;;;5096282;28;20485;-70
2022/08/24 09:44:06;;;;;;;0.80;0.80;;;34.90;31.50;;;;;;5096647;28;20425;-71
2022/08/24 09:46:46;;;;;;;0.93;0.70;;;34.40;31.20;;;;;;5096323;28;20423;-71
2022/08/24 09:49:18;;;;;;;0.70;0.50;;;34.70;31.20;;;;;;5094960;28;20454;-71
2022/08/24 09:52:02;;;;;;;0.60;0.40;;;34.40;31.20;;;;;;5095648;28;20436;-71
2022/08/24 09:54:42;;;;;;;0.57;0.50;;;34.40;33.10;;;;;;5096237;28;20402;-71
2022/08/24 09:57:30;;;;;;;0.80;0.77;;;33.80;34.30;;;;;;5078214;28;20426;-71
2022/08/24 10:00:24;;;;;;;0.50;0.50;;;33.40;32.70;;;;;;5096553;28;20485;-71
2022/08/24 10:03:15;;;;;;;0.53;0.53;;;33.20;33.30;;;;;;5096015;28;20402;-70
2022/08/24 10:05:57;;;;;;;0.73;0.70;;;33.00;33.70;;;;;;5096212;28;20427;-72
2022/08/24 10:08:26;;;;;;;0.50;0.50;;;33.10;34.00;;;;;;5096385;28;20434;-72
2022/08/24 10:11:01;;;;;;;0.77;0.70;;;33.20;35.50;;;;;;5095434;28;20910;-71
2022/08/24 10:13:50;;;;;;;2.97;0.60;;;32.70;33.50;;;;;;5095512;28;20817;-72
2022/08/24 10:16:45;;;;;;;0.60;0.60;;;32.40;33.50;;;;;;5094371;28;20509;-71
2022/08/24 10:19:36;;;;;;;0.50;0.50;;;32.30;35.50;;;;;;5080294;28;20968;-71
2022/08/24 10:22:24;;;;;;;0.70;0.70;;;32.20;34.20;;;;;;5094734;28;20966;-71
2022/08/24 10:25:04;;;;;;;0.50;0.50;;;32.10;36.30;;;;;;5095811;28;20432;-71
2022/08/24 10:27:45;;;;;;;1.33;0.63;;;31.50;35.00;;;;;;5094803;28;20446;-70
2022/08/24 10:30:39;;;;;;;0.70;0.70;;;30.50;38.40;;;;;;5095563;28;20395;-70
2022/08/24 10:33:18;;;;;;;0.50;0.40;;;30.60;37.70;;;;;;5095712;28;20867;-71
2022/08/24 10:35:46;;;;;;;0.53;0.50;;;30.70;35.60;;;;;;5095451;28;20878;-70
2022/08/24 10:41:15;;;;;;;0.43;0.43;;;30.50;36.70;;;;;;5095227;28;20394;-71
2022/08/24 10:43:47;;;;;;;1.47;0.70;;;30.30;36.70;;;;;;5095695;28;20403;-71
2022/08/24 10:46:21;;;;;;;0.50;0.50;;;30.20;36.90;;;;;;5095049;28;20785;-70
2022/08/24 10:49:13;;;;;;;0.53;0.53;;;29.80;35.80;;;;;;5095195;28;20458;-70
2022/08/24 10:52:36;;;;;;;0.60;0.50;;;29.60;37.10;;;;;;5094853;28;20411;-70
2022/08/24 10:55:27;;;;;;;0.60;0.43;;;29.60;38.20;;;;;;4977321;28;20422;-70
2022/08/24 10:57:55;;;;;;;0.70;0.70;;;29.60;38.90;;;;;;4993786;28;20422;-70
2022/08/24 11:00:27;;;;;;;0.40;0.40;;;29.30;37.80;;;;;;5072631;28;20418;-70
2022/08/24 11:03:14;;;;;;;0.50;0.50;;;29.20;38.80;;;;;;5095265;28;20490;-70
2022/08/24 11:05:45;;;;;;;0.40;0.40;;;29.10;37.70;;;;;;5094212;28;20425;-70
2022/08/24 11:08:19;;;;;;;0.60;0.60;;;29.20;39.30;;;;;;5094577;28;20828;-70
2022/08/24 11:11:01;;;;;;;0.73;0.57;;;29.20;36.80;;;;;;5094491;28;20788;-70
2022/08/24 11:13:26;;;;;;;0.50;0.50;;;29.30;40.00;;;;;;5094507;28;20395;-70
2022/08/24 11:15:55;;;;;;;0.40;0.40;;;29.60;37.20;;;;;;5093982;28;20422;-70
2022/08/24 11:18:21;;;;;;;0.40;0.40;;;29.80;39.80;;;;;;5094531;28;20194;-70
2022/08/24 11:20:49;;;;;;;0.50;0.50;;;29.80;36.20;;;;;;5094306;28;20472;-70
2022/08/24 11:23:23;;;;;;;0.47;0.40;;;29.70;35.50;;;;;;5094427;28;20486;-70
2022/08/24 11:25:59;;;;;;;0.40;0.40;;;29.10;37.60;;;;;;5094130;28;20952;-70
2022/08/24 11:28:45;;;;;;;0.40;0.40;;;29.20;35.90;;;;;;5094351;28;20442;-70
2022/08/24 11:31:18;;;;;;;0.57;0.57;;;28.50;36.00;;;;;;5094157;28;20391;-70
2022/08/24 11:33:47;;;;;;;0.60;0.60;;;28.50;37.20;;;;;;5094289;28;20779;-69
2022/08/24 11:36:16;;;;;;;0.83;0.70;;;28.80;38.50;;;;;;5094226;28;20442;-71
2022/08/24 11:38:41;;;;;;;0.40;0.40;;;29.10;38.20;;;;;;5093986;28;20406;-70
2022/08/24 11:41:17;;;;;;;1.50;0.53;;;29.30;36.50;;;;;;5093990;28;20402;-71
2022/08/24 11:44:11;;;;;;;0.40;0.40;;;29.00;35.70;;;;;;5094248;28;20659;-70
2022/08/24 11:46:59;;;;;;;0.40;0.40;;;29.00;35.10;;;;;;5093925;28;20498;-70
2022/08/24 11:49:37;;;;;;;0.40;0.40;;;28.80;35.80;;;;;;5093909;28;20441;-71
2022/08/24 11:52:30;;;;;;;0.80;0.80;;;28.60;36.40;;;;;;5093921;28;20403;-71
2022/08/24 11:54:56;;;;;;;0.50;0.50;;;28.70;36.50;;;;;;5092594;28;20991;-71
2022/08/24 11:57:42;;;;;;;0.40;0.40;;;28.90;35.60;;;;;;5093655;28;20514;-70
2022/08/24 12:00:51;;;;;;;0.77;0.47;;;28.70;36.80;;;;;;5094088;28;20179;-70
2022/08/24 12:03:26;;;;;;;0.60;0.60;;;28.20;38.40;;;;;;5093296;28;20418;-70
2022/08/24 12:06:25;;;;;;;0.40;0.40;;;28.10;40.50;;;;;;5093806;28;20918;-70
2022/08/24 12:09:00;;;;;;;0.40;0.40;;;28.20;40.20;;;;;;5093583;28;20450;-70
2022/08/24 12:11:45;;;;;;;0.70;0.50;;;28.30;39.00;;;;;;5093711;28;20394;-70
2022/08/24 12:14:21;;;;;;;0.40;0.40;;;28.60;38.50;;;;;;5093987;28;20455;-71
2022/08/24 12:17:15;;;;;;;0.43;0.43;;;28.70;37.50;;;;;;5093491;28;20422;-71
2022/08/24 12:19:50;;;;;;;0.80;0.50;;;28.40;38.30;;;;;;5093485;28;20398;-71
2022/08/24 12:22:18;;;;;;;0.53;0.53;;;28.10;35.90;;;;;;5093414;28;20418;-70
2022/08/24 12:24:53;;;;;;;1.13;0.63;;;27.50;37.40;;;;;;5093563;28;20481;-70
2022/08/24 12:27:25;;;;;;;0.60;0.60;;;27.30;37.60;;;;;;5093447;28;20599;-71
2022/08/24 12:29:56;;;;;;;0.30;0.30;;;27.40;39.60;;;;;;5093675;28;20395;-70
2022/08/24 12:33:00;;;;;;;0.40;0.40;;;27.40;39.40;;;;;;5093289;28;20507;-70
2022/08/24 12:35:29;;;;;;;0.50;0.50;;;27.40;39.10;;;;;;5093647;28;20552;-70
2022/08/24 12:38:18;;;;;;;1.00;0.57;;;27.40;38.60;;;;;;5093354;28;20457;-71
2022/08/24 12:40:51;;;;;;;0.53;0.53;;;27.60;37.30;;;;;;5075498;28;20423;-70
2022/08/24 12:43:20;;;;;;;0.40;0.40;;;27.80;40.40;;;;;;5093533;28;20887;-70
2022/08/24 12:45:46;;;;;;;0.60;0.47;;;28.10;36.50;;;;;;5093291;28;20414;-71
2022/08/24 12:48:23;;;;;;;0.40;0.40;;;28.10;34.90;;;;;;5093132;28;20950;-71
2022/08/24 12:50:51;;;;;;;0.40;0.40;;;28.10;35.30;;;;;;5096813;28;20742;-70
2022/08/24 12:53:26;;;;;;;0.40;0.40;;;28.10;34.60;;;;;;5097017;28;20409;-70
2022/08/24 12:55:51;;;;;;;0.40;0.30;;;28.10;34.80;;;;;;5097056;28;20567;-70
2022/08/24 12:58:32;;;;;;;0.40;0.40;;;28.00;33.90;;;;;;5096865;28;20497;-70
2022/08/24 13:01:03;;;;;;;0.60;0.60;;;28.10;34.70;;;;;;5096848;28;20177;-71
2022/08/24 13:03:37;;;;;;;0.40;0.40;;;27.90;33.80;;;;;;5096713;28;20410;-70
2022/08/24 13:06:10;;;;;;;0.40;0.40;;;27.50;36.30;;;;;;5096122;28;20418;-70
2022/08/24 13:08:41;;;;;;;0.40;0.40;;;27.50;36.90;;;;;;5095956;28;20572;-70
2022/08/24 13:11:27;;;;;;;0.40;0.40;;;27.50;36.20;;;;;;5095837;28;20411;-71
2022/08/24 13:13:55;;;;;;;0.40;0.40;;;27.80;37.50;;;;;;5096535;28;20415;-70
2022/08/24 13:16:55;;;;;;;0.60;0.60;;;27.80;36.70;;;;;;5096089;28;20445;-70
2022/08/24 13:19:29;;;;;;;0.40;0.40;;;27.80;34.10;;;;;;5095696;28;20405;-71
2022/08/24 13:22:00;;;;;;;0.60;0.50;;;27.80;34.10;;;;;;5095919;28;20481;-71